Time;durP1;ratioP1;P1;durP2;ratioP2;P2;SDS_P1;SDS_P2;PMS_P1;PMS_P2;Temp;Humidity;BMP_temperature;BMP_pressure;BME280_temperature;BME280_humidity;BME280_pressure;Samples;Min_cycle;Max_cycle;Signal;HPM_P1;HPM_P2
2022/06/06 00:02:17;;;;;;;51.88;29.52;;;;;;;14.43;100.00;101221.44;5070271;28;20484;-78
2022/06/06 00:04:42;;;;;;;48.97;29.00;;;;;;;14.40;100.00;101210.88;5069183;28;20492;-78
2022/06/06 00:07:07;;;;;;;49.45;30.15;;;;;;;14.39;100.00;101219.97;5068864;28;20036;-77
2022/06/06 00:09:34;;;;;;;50.47;29.20;;;;;;;14.41;100.00;101221.56;5065896;28;20036;-78
2022/06/06 00:12:00;;;;;;;45.00;28.35;;;;;;;14.39;100.00;101222.69;5067656;28;20036;-78
2022/06/06 00:14:26;;;;;;;47.53;28.10;;;;;;;14.39;100.00;101219.97;5069177;28;20028;-79
2022/06/06 00:16:52;;;;;;;45.42;25.40;;;;;;;14.39;100.00;101222.69;5069794;28;20053;-78
2022/06/06 00:19:17;;;;;;;42.55;25.98;;;;;;;14.38;100.00;101227.25;5069789;28;20031;-78
2022/06/06 00:21:43;;;;;;;44.03;25.42;;;;;;;14.38;100.00;101224.53;5071007;28;20028;-78
2022/06/06 00:24:10;;;;;;;46.17;26.55;;;;;;;14.39;100.00;101223.53;5070647;28;20033;-78
2022/06/06 00:26:35;;;;;;;40.63;25.35;;;;;;;14.39;100.00;101214.56;5065426;28;20032;-78
2022/06/06 00:29:03;;;;;;;42.90;26.42;;;;;;;14.40;100.00;101205.47;5064908;28;20025;-78
2022/06/06 00:36:58;;;;;;;43.90;26.00;;;;;;;14.39;100.00;101198.34;5070649;28;20051;-78
2022/06/06 00:39:24;;;;;;;46.25;25.83;;;;;;;14.38;100.00;101202.03;5069731;28;20029;-78
2022/06/06 00:41:52;;;;;;;44.85;26.65;;;;;;;14.37;100.00;101194.94;5073793;28;20494;-78
2022/06/06 00:44:20;;;;;;;45.20;26.35;;;;;;;14.33;100.00;101195.19;5073544;28;20043;-78
2022/06/06 00:47:18;;;;;;;44.25;26.35;;;;;;;14.39;100.00;101192.94;5066804;28;20063;-78
2022/06/06 00:49:59;;;;;;;45.63;25.58;;;;;;;14.40;100.00;101192.81;5058157;28;20098;-78
2022/06/06 00:52:29;;;;;;;45.13;26.10;;;;;;;14.39;100.00;101187.53;5064827;28;20071;-78
2022/06/06 00:55:02;;;;;;;46.78;26.30;;;;;;;14.39;100.00;101192.94;5072855;28;20569;-78
2022/06/06 00:57:31;;;;;;;40.65;24.20;;;;;;;14.39;100.00;101191.09;5074922;28;20029;-78
2022/06/06 00:59:57;;;;;;;;;;;;;;;14.46;100.00;101183.31;5073727;28;20044;-78
2022/06/06 01:02:22;;;;;;;46.53;26.98;;;;;;;14.40;100.00;101186.56;5073257;28;20011;-78
2022/06/06 01:04:48;;;;;;;46.88;28.27;;;;;;;14.41;100.00;101186.41;5074359;28;20028;-78
2022/06/06 01:07:14;;;;;;;49.58;28.75;;;;;;;14.40;100.00;101194.66;5054355;28;20113;-76
2022/06/06 01:09:41;;;;;;;47.97;30.20;;;;;;;14.39;100.00;101192.94;5072673;28;20360;-78
2022/06/06 01:12:11;;;;;;;52.50;31.23;;;;;;;14.40;100.00;101194.66;5074323;28;20507;-78
2022/06/06 01:14:38;;;;;;;;;;;;;;;14.46;100.00;101188.72;5074379;28;20021;-78
2022/06/06 01:17:24;;;;;;;51.17;30.58;;;;;;;14.39;100.00;101185.66;5071908;28;20427;-78
2022/06/06 01:20:08;;;;;;;51.85;33.50;;;;;;;14.40;100.00;101191.97;5065102;28;20060;-78
2022/06/06 01:22:49;;;;;;;51.05;31.52;;;;;;;14.39;100.00;101192.94;5060187;28;20024;-79
2022/06/06 01:25:44;;;;;;;55.90;33.80;;;;;;;14.41;100.00;101190.97;5070798;28;20060;-78
2022/06/06 01:28:48;;;;;;;58.90;33.58;;;;;;;14.42;100.00;101189.97;5071448;28;20043;-78
2022/06/06 01:31:34;;;;;;;51.97;33.08;;;;;;;14.39;100.00;101192.94;5013901;28;20539;-78
2022/06/06 01:34:02;;;;;;;48.40;32.33;;;;;;;14.37;100.00;101195.78;5026600;28;20373;-78
2022/06/06 01:36:29;;;;;;;54.58;32.42;;;;;;;14.38;100.00;101188.50;5030010;28;20040;-78
2022/06/06 01:38:57;;;;;;;51.55;32.88;;;;;;;14.39;100.00;101187.53;5023188;28;20424;-78
2022/06/06 01:41:29;;;;;;;47.15;30.83;;;;;;;14.41;100.00;101194.53;5025500;28;20034;-77
2022/06/06 01:44:02;;;;;;;50.20;31.63;;;;;;;14.42;100.00;101195.38;5030904;28;20033;-77
2022/06/06 01:46:33;;;;;;;50.55;32.47;;;;;;;14.42;100.00;101192.69;5022232;28;20068;-77
2022/06/06 01:48:59;;;;;;;53.00;32.00;;;;;;;14.41;100.00;101194.53;5001314;28;20511;-77
2022/06/06 01:51:28;;;;;;;48.30;30.63;;;;;;;14.41;100.00;101196.41;5029866;28;20057;-77
2022/06/06 01:53:54;;;;;;;44.47;29.27;;;;;;;14.40;100.00;101195.50;5013321;28;20064;-77
2022/06/06 01:56:23;;;;;;;44.00;26.42;;;;;;;14.42;100.00;101195.38;5030016;28;20049;-77
2022/06/06 01:58:48;;;;;;;43.08;27.88;;;;;;;14.43;100.00;101189.84;5028651;28;20378;-77
2022/06/06 02:01:14;;;;;;;43.65;27.60;;;;;;;14.42;100.00;101181.84;5013352;28;20088;-77
2022/06/06 02:03:39;;;;;;;43.38;25.15;;;;;;;14.42;100.00;101182.75;5013389;28;20091;-78
2022/06/06 02:06:06;;;;;;;40.05;25.58;;;;;;;14.41;100.00;101172.91;5034336;28;20443;-77
2022/06/06 02:08:32;;;;;;;41.78;24.50;;;;;;;14.41;100.00;101169.34;5070221;28;20055;-77
2022/06/06 02:10:57;;;;;;;40.40;23.27;;;;;;;14.42;100.00;101168.34;5070664;28;20040;-78
2022/06/06 02:13:23;;;;;;;43.60;25.77;;;;;;;14.40;100.00;101162.22;5072448;28;20034;-77
2022/06/06 02:15:49;;;;;;;38.55;23.90;;;;;;;14.40;100.00;101162.22;5071818;28;20476;-77
2022/06/06 02:18:14;;;;;;;39.25;23.17;;;;;;;14.38;100.00;101162.34;5070883;28;20080;-77
2022/06/06 02:20:40;;;;;;;42.55;23.55;;;;;;;14.38;100.00;101165.06;5072432;28;20050;-77
2022/06/06 02:23:06;;;;;;;41.70;24.63;;;;;;;14.38;100.00;101164.16;5070534;28;20051;-77
2022/06/06 02:25:32;;;;;;;43.90;23.88;;;;;;;14.39;100.00;101171.31;5058813;28;20116;-77
2022/06/06 02:27:59;;;;;;;41.30;23.02;;;;;;;14.40;100.00;101178.44;5064363;28;20033;-77
2022/06/06 02:30:28;;;;;;;43.50;23.63;;;;;;;14.38;100.00;101177.69;5069647;28;20466;-78
2022/06/06 02:32:53;;;;;;;43.13;25.45;;;;;;;14.39;100.00;101171.31;5070268;28;20421;-77
2022/06/06 02:35:22;;;;;;;44.58;25.55;;;;;;;14.39;100.00;101184.81;5072280;28;20120;-77
2022/06/06 02:37:48;;;;;;;45.08;27.85;;;;;;;14.37;100.00;101179.56;5070462;28;20060;-77
2022/06/06 02:40:17;;;;;;;46.30;26.63;;;;;;;14.38;100.00;101181.28;5070665;28;20036;-77
2022/06/06 02:42:42;;;;;;;45.42;26.25;;;;;;;14.38;100.00;101170.47;5058046;28;20029;-77
2022/06/06 02:45:18;;;;;;;42.67;24.60;;;;;;;14.35;100.00;101165.31;5068451;28;20028;-77
2022/06/06 02:47:46;;;;;;;39.40;25.30;;;;;;;14.35;100.00;101170.72;5070852;28;20024;-77
2022/06/06 02:50:15;;;;;;;42.83;24.70;;;;;;;14.34;100.00;101169.84;5063307;28;20020;-77
2022/06/06 02:52:40;;;;;;;44.28;25.35;;;;;;;14.33;100.00;101172.69;5071661;28;20487;-77
2022/06/06 02:55:08;;;;;;;46.33;24.55;;;;;;;14.32;100.00;101161.00;5070470;28;20020;-77
2022/06/06 02:57:41;;;;;;;38.58;22.63;;;;;;;14.34;100.00;101166.28;5071289;28;20521;-77
2022/06/06 03:00:10;;;;;;;40.33;24.63;;;;;;;14.32;100.00;101166.41;5070389;28;20044;-77
2022/06/06 03:02:35;;;;;;;42.15;24.77;;;;;;;14.30;100.00;101168.38;5070310;28;20028;-77
2022/06/06 03:05:05;;;;;;;43.92;26.05;;;;;;;14.29;100.00;101163.09;5067509;28;20141;-77
2022/06/06 03:07:50;;;;;;;44.30;25.05;;;;;;;14.31;100.00;101162.00;5071078;28;20384;-77
2022/06/06 03:10:35;;;;;;;46.17;26.60;;;;;;;14.30;100.00;101179.19;5070636;28;20392;-77
2022/06/06 03:13:28;;;;;;;45.28;26.60;;;;;;;14.32;100.00;101168.28;5072020;28;20039;-77
2022/06/06 03:21:49;;;;;;;43.78;24.90;;;;;;;14.26;99.51;101171.47;5072364;28;20543;-77
2022/06/06 03:24:36;;;;;;;38.55;23.45;;;;;;;14.27;98.61;101176.75;5069403;28;20099;-77
2022/06/06 03:27:14;;;;;;;39.42;24.40;;;;;;;14.24;99.20;101179.72;5067015;28;20032;-77
2022/06/06 03:29:50;;;;;;;40.63;24.00;;;;;;;14.22;99.27;101176.28;5071011;28;20037;-77
2022/06/06 03:32:34;;;;;;;39.47;23.38;;;;;;;14.20;99.06;101178.25;5058058;28;20170;-77
2022/06/06 03:35:39;;;;;;;39.83;23.67;;;;;;;14.19;98.84;101181.97;5067388;28;20115;-77
2022/06/06 03:38:08;;;;;;;37.90;22.45;;;;;;;14.15;98.01;101180.50;5066462;28;20036;-77
2022/06/06 03:41:06;;;;;;;40.60;22.63;;;;;;;14.15;97.57;101180.50;5064987;28;20032;-77
2022/06/06 03:43:53;;;;;;;39.47;21.48;;;;;;;14.09;97.34;101181.00;5059296;28;20453;-77
2022/06/06 03:46:27;;;;;;;38.60;21.65;;;;;;;14.04;96.95;101183.22;5051644;28;20029;-77
2022/06/06 03:49:16;;;;;;;38.72;21.58;;;;;;;14.02;96.84;101194.16;5057645;28;20350;-77
2022/06/06 03:51:59;;;;;;;38.45;21.30;;;;;;;13.99;97.27;101191.72;5069630;28;20040;-77
2022/06/06 03:55:04;;;;;;;36.38;19.67;;;;;;;13.95;96.48;101185.72;5068909;28;20031;-77
2022/06/06 03:57:32;;;;;;;35.97;20.30;;;;;;;13.89;96.27;101188.91;5053898;28;20047;-77
2022/06/06 04:00:02;;;;;;;35.42;19.52;;;;;;;13.86;96.80;101191.00;5070213;28;20151;-77
2022/06/06 04:02:36;;;;;;;34.55;18.25;;;;;;;13.81;96.06;101196.78;5068722;28;20041;-77
2022/06/06 04:05:07;;;;;;;37.72;20.67;;;;;;;13.76;95.59;101190.88;5069625;28;20107;-77
2022/06/06 04:07:33;;;;;;;32.65;18.65;;;;;;;13.71;95.89;101196.66;5068884;28;20448;-76
2022/06/06 04:09:58;;;;;;;36.92;18.50;;;;;;;13.69;96.32;101197.78;5070915;28;20039;-77
2022/06/06 04:12:33;;;;;;;33.10;17.02;;;;;;;13.67;96.30;101202.44;5066440;28;20453;-77
2022/06/06 04:15:08;;;;;;;31.58;17.67;;;;;;;13.61;96.43;101203.81;5068608;28;20032;-77
2022/06/06 04:17:43;;;;;;;36.80;19.40;;;;;;;13.57;96.07;101213.13;5069815;28;20127;-77
2022/06/06 04:20:16;;;;;;;37.55;18.10;;;;;;;13.54;96.01;101213.38;5070538;28;20032;-77
2022/06/06 04:23:14;;;;;;;32.22;17.65;;;;;;;13.52;96.31;101215.34;5068156;28;20036;-77
2022/06/06 04:25:51;;;;;;;33.13;17.42;;;;;;;13.52;95.89;101216.19;5026575;28;20041;-77
2022/06/06 04:28:28;;;;;;;30.27;16.30;;;;;;;13.52;95.54;101220.75;4992475;28;20136;-77
2022/06/06 04:31:12;;;;;;;31.50;16.45;;;;;;;13.52;95.59;101220.75;5017233;28;20034;-77
2022/06/06 04:33:54;;;;;;;30.85;16.52;;;;;;;13.51;95.42;101225.28;5027928;28;20033;-77
2022/06/06 04:36:33;;;;;;;33.72;16.38;;;;;;;13.49;94.99;101221.84;5027428;28;20413;-77
2022/06/06 04:39:21;;;;;;;33.38;17.02;;;;;;;13.50;94.05;101218.19;5027239;28;20032;-77
2022/06/06 04:41:53;;;;;;;29.10;15.33;;;;;;;13.48;92.86;101225.53;5028298;28;20025;-77
2022/06/06 04:44:33;;;;;;;32.15;16.38;;;;;;;13.46;92.64;101222.94;5028183;28;20033;-77
2022/06/06 04:47:26;;;;;;;28.00;14.32;;;;;;;13.48;92.53;101228.22;5023470;28;20026;-77
2022/06/06 04:49:52;;;;;;;30.85;16.25;;;;;;;13.49;92.58;101218.31;5027010;28;20459;-77
2022/06/06 04:52:19;;;;;;;31.92;17.50;;;;;;;13.48;91.39;101212.03;5011190;28;20397;-77
2022/06/06 04:54:45;;;;;;;31.23;17.70;;;;;;;13.49;91.03;101221.84;5026093;28;20045;-77
2022/06/06 04:57:12;;;;;;;35.53;16.10;;;;;;;13.47;90.91;101218.44;5028138;28;20037;-77
2022/06/06 04:59:40;;;;;;;30.08;17.20;;;;;;;13.48;91.52;101217.41;5027595;28;20457;-77
2022/06/06 05:02:06;;;;;;;30.83;17.48;;;;;;;13.48;91.16;101214.72;5043664;28;20455;-77
2022/06/06 05:04:32;;;;;;;30.33;17.02;;;;;;;13.45;90.11;101217.66;5068271;28;20430;-77
2022/06/06 05:07:21;;;;;;;33.22;19.40;;;;;;;13.46;90.49;101224.81;5066802;28;20024;-77
2022/06/06 05:10:02;;;;;;;31.42;17.73;;;;;;;13.44;90.38;101218.63;5068041;28;20028;-77
2022/06/06 05:12:55;;;;;;;32.78;17.92;;;;;;;13.43;90.97;101222.34;5058461;28;20483;-77
2022/06/06 05:15:34;;;;;;;30.10;18.40;;;;;;;13.38;89.93;101225.41;5052755;28;20033;-77
2022/06/06 05:18:09;;;;;;;32.13;17.52;;;;;;;13.37;89.85;101223.69;5053913;28;20095;-77
2022/06/06 05:20:47;;;;;;;29.13;18.20;;;;;;;13.36;90.12;101221.97;5069750;28;20070;-77
2022/06/06 05:23:40;;;;;;;30.83;18.15;;;;;;;13.40;90.99;101226.13;5069579;28;20024;-77
2022/06/06 05:26:18;;;;;;;30.40;17.92;;;;;;;13.38;90.29;101230.81;5069315;28;20024;-77
2022/06/06 05:28:58;;;;;;;30.55;18.13;;;;;;;13.42;90.47;101236.81;5072254;28;20365;-77
2022/06/06 05:32:03;;;;;;;26.70;16.13;;;;;;;13.43;89.72;101233.16;5074072;28;20027;-77
2022/06/06 05:34:37;;;;;;;27.65;16.25;;;;;;;13.42;89.83;101226.88;5073614;28;20060;-77
2022/06/06 05:37:14;;;;;;;29.55;16.73;;;;;;;13.44;89.44;101229.44;5074088;28;20103;-77
2022/06/06 05:40:11;;;;;;;27.48;15.70;;;;;;;13.51;89.46;101229.81;5067073;28;20082;-77
2022/06/06 05:42:43;;;;;;;30.25;16.88;;;;;;;13.50;88.65;101238.91;5071319;28;20051;-77
2022/06/06 05:45:13;;;;;;;26.50;16.00;;;;;;;13.51;88.06;101246.03;5078044;28;20040;-78
2022/06/06 05:47:57;;;;;;;29.70;17.40;;;;;;;13.55;88.73;101242.09;5072603;28;20499;-78
2022/06/06 05:50:35;;;;;;;33.75;17.10;;;;;;;13.51;87.10;101246.88;5066217;28;20446;-78
2022/06/06 05:53:31;;;;;;;31.23;14.13;;;;;;;13.54;88.11;101240.38;5069562;28;20415;-78
2022/06/06 05:56:16;;;;;;;28.58;15.85;;;;;;;13.56;88.30;101241.13;5071048;28;20036;-77
2022/06/06 05:59:04;;;;;;;27.65;15.45;;;;;;;13.61;88.78;101236.22;5059427;28;20120;-77
2022/06/06 06:01:51;;;;;;;26.75;16.50;;;;;;;13.65;87.51;101243.09;5070550;28;20055;-77
2022/06/06 06:04:36;;;;;;;25.45;16.23;;;;;;;13.68;87.99;101242.00;5070249;28;20028;-78
2022/06/06 06:07:12;;;;;;;26.55;15.80;;;;;;;13.70;87.20;101242.72;5072208;28;20040;-78
2022/06/06 06:10:04;;;;;;;26.15;15.75;;;;;;;13.71;87.30;101241.75;5064983;28;20028;-78
2022/06/06 06:12:45;;;;;;;26.83;15.07;;;;;;;13.73;86.92;101239.75;5072195;28;20115;-78
2022/06/06 06:15:32;;;;;;;27.55;13.85;;;;;;;13.78;87.31;101242.97;5070093;28;20074;-78
2022/06/06 06:18:01;;;;;;;23.52;11.90;;;;;;;13.81;87.90;101237.31;5070812;28;20051;-78
2022/06/06 06:20:30;;;;;;;22.35;11.02;;;;;;;13.83;86.44;101239.91;5070209;28;20024;-78
2022/06/06 06:22:58;;;;;;;;;;;;;;;13.90;87.06;101246.53;5072116;28;20050;-78
2022/06/06 06:25:25;;;;;;;22.23;10.18;;;;;;;13.85;85.59;101243.31;5071581;28;19920;-77
2022/06/06 06:27:58;;;;;;;21.27;9.60;;;;;;;13.85;85.00;101249.59;5067161;28;20025;-78
2022/06/06 06:30:28;;;;;;;19.98;8.07;;;;;;;13.90;84.83;101254.63;5071013;28;20392;-78
2022/06/06 06:33:13;;;;;;;19.10;7.78;;;;;;;13.92;84.96;101267.00;5058855;28;20045;-78
2022/06/06 06:35:46;;;;;;;16.88;6.47;;;;;;;13.94;84.30;101264.22;5072871;28;20073;-78
2022/06/06 06:38:34;;;;;;;20.55;7.53;;;;;;;13.98;83.91;101265.66;5058586;28;20053;-78
2022/06/06 06:41:13;;;;;;;16.58;6.40;;;;;;;14.03;84.17;101263.44;5071576;28;20024;-78
2022/06/06 06:44:05;;;;;;;19.05;6.90;;;;;;;14.08;84.90;101261.22;5064015;28;20029;-78
2022/06/06 06:46:43;;;;;;;14.88;5.70;;;;;;;14.13;82.43;101268.97;5070247;28;20108;-77
2022/06/06 06:49:40;;;;;;;19.70;5.75;;;;;;;14.11;82.64;101274.47;5072628;28;20032;-78
2022/06/06 06:52:43;;;;;;;17.10;5.55;;;;;;;14.12;82.57;101283.47;5072488;28;20040;-78
2022/06/06 06:55:15;;;;;;;13.35;4.75;;;;;;;14.16;81.81;101277.69;5072028;28;20021;-78
2022/06/06 06:58:08;;;;;;;11.27;3.90;;;;;;;14.22;82.41;101280.88;5070197;28;20032;-78
2022/06/06 07:01:02;;;;;;;13.25;4.43;;;;;;;14.29;82.79;101280.25;5062981;28;20128;-78
2022/06/06 07:09:43;;;;;;;9.55;3.40;;;;;;;14.47;79.83;101277.00;5061228;28;20074;-77
2022/06/06 07:12:48;;;;;;;11.73;4.13;;;;;;;14.52;77.17;101280.16;5070872;28;20033;-78
2022/06/06 07:15:43;;;;;;;10.00;3.55;;;;;;;14.57;77.64;101279.78;5069939;28;20028;-77
2022/06/06 07:18:12;;;;;;;8.30;3.38;;;;;;;14.64;75.45;101289.13;5068381;28;20075;-78
2022/06/06 07:20:40;;;;;;;10.18;3.90;;;;;;;14.72;75.78;101283.94;5059712;28;20101;-78
2022/06/06 07:23:11;;;;;;;10.30;3.75;;;;;;;14.68;74.54;101291.47;5070699;28;20040;-78
2022/06/06 07:25:39;;;;;;;12.85;4.00;;;;;;;14.73;74.74;101288.38;5069175;28;20047;-78
2022/06/06 07:28:07;;;;;;;12.10;3.88;;;;;;;14.76;73.89;101282.72;5069533;28;20476;-78
2022/06/06 07:30:38;;;;;;;11.27;3.67;;;;;;;14.88;74.50;101285.38;5070714;28;20035;-78
2022/06/06 07:33:06;;;;;;;12.23;3.60;;;;;;;14.93;74.36;101283.13;5069259;28;20024;-78
2022/06/06 07:35:49;;;;;;;11.07;3.53;;;;;;;14.97;74.33;101293.56;5070825;28;20056;-78
2022/06/06 07:38:36;;;;;;;9.27;3.50;;;;;;;15.06;74.73;101293.78;5069965;28;20062;-78
2022/06/06 07:41:39;;;;;;;12.43;3.95;;;;;;;15.17;75.97;101291.00;5070785;28;20032;-78
2022/06/06 07:44:26;;;;;;;7.18;3.28;;;;;;;15.24;73.99;101299.44;5069610;28;20032;-78
2022/06/06 07:47:32;;;;;;;12.82;3.50;;;;;;;15.26;74.66;101300.19;5054502;28;20032;-78
2022/06/06 07:50:09;;;;;;;11.98;3.65;;;;;;;15.30;74.86;101301.63;5065599;28;20047;-78
2022/06/06 07:52:53;;;;;;;10.68;3.53;;;;;;;15.32;74.43;101299.66;5066222;28;20512;-78
2022/06/06 07:55:33;;;;;;;7.65;3.15;;;;;;;15.30;72.89;101297.09;5064984;28;20062;-78
2022/06/06 07:58:08;;;;;;;6.95;3.58;;;;;;;15.31;72.43;101298.78;5055645;28;20476;-79
2022/06/06 08:00:34;;;;;;;13.35;4.15;;;;;;;15.31;72.22;101296.06;5067789;28;20402;-78
2022/06/06 08:03:25;;;;;;;8.77;3.47;;;;;;;15.34;71.77;101305.78;5066416;28;20416;-78
2022/06/06 08:06:12;;;;;;;10.23;4.03;;;;;;;15.41;73.58;101298.00;5050346;28;20113;-78
2022/06/06 08:09:04;;;;;;;11.95;3.92;;;;;;;15.49;73.13;101293.63;5065803;28;20108;-77
2022/06/06 08:11:56;;;;;;;12.95;4.07;;;;;;;15.50;70.94;101305.31;5063242;28;20189;-78
2022/06/06 08:14:33;;;;;;;7.65;3.67;;;;;;;15.51;71.39;101298.91;5067056;28;20472;-78
2022/06/06 08:17:16;;;;;;;7.95;3.30;;;;;;;15.52;72.26;101292.47;5065805;28;20385;-78
2022/06/06 08:20:17;;;;;;;11.10;3.60;;;;;;;15.52;71.59;101292.47;5063682;28;20183;-78
2022/06/06 08:22:44;;;;;;;8.00;3.38;;;;;;;15.52;71.27;101290.66;5050388;28;20025;-79
2022/06/06 08:25:13;;;;;;;8.05;3.28;;;;;;;15.51;69.54;101291.63;5056147;28;20056;-78
2022/06/06 08:27:50;;;;;;;10.20;3.47;;;;;;;15.52;70.47;101290.66;5069958;28;20020;-78
2022/06/06 08:30:16;;;;;;;8.50;3.10;;;;;;;15.48;71.99;101286.50;5070611;28;20032;-78
2022/06/06 08:32:42;;;;;;;10.65;3.78;;;;;;;15.47;72.39;101289.34;5068002;28;20025;-78
2022/06/06 08:35:08;;;;;;;6.93;2.70;;;;;;;15.52;73.05;101290.66;5070004;28;20359;-78
2022/06/06 08:37:42;;;;;;;9.35;3.10;;;;;;;15.58;72.73;101280.25;5065906;28;20029;-78
2022/06/06 08:40:44;;;;;;;12.05;3.22;;;;;;;15.64;71.52;101287.88;5064251;28;20547;-78
2022/06/06 08:43:40;;;;;;;7.30;2.85;;;;;;;15.69;72.90;101277.47;5066587;28;20464;-78
2022/06/06 08:46:18;;;;;;;8.90;2.45;;;;;;;15.71;72.57;101275.47;5064075;28;20092;-78
2022/06/06 08:48:57;;;;;;;8.38;3.05;;;;;;;15.70;71.67;101271.06;5070020;28;20024;-78
2022/06/06 08:51:48;;;;;;;9.43;2.90;;;;;;;15.72;72.00;101280.78;5069448;28;20036;-83
2022/06/06 08:54:35;;;;;;;14.38;4.70;;;;;;;15.67;68.50;101277.59;5064321;28;20488;-83
2022/06/06 08:57:19;;;;;;;12.98;4.97;;;;;;;15.65;69.45;101263.34;5059112;28;20033;-83
2022/06/06 09:00:05;;;;;;;15.75;5.03;;;;;;;15.69;70.07;101274.75;5050476;28;20020;-84
2022/06/06 09:02:58;;;;;;;13.90;4.22;;;;;;;15.73;69.98;101270.78;5054775;28;20025;-83
2022/06/06 09:05:54;;;;;;;12.05;4.25;;;;;;;15.77;71.01;101277.66;5064351;28;20031;-83
2022/06/06 09:08:48;;;;;;;12.77;4.50;;;;;;;15.81;69.99;101271.00;5072575;28;20090;-83
2022/06/06 09:11:40;;;;;;;14.25;5.10;;;;;;;15.84;69.57;101273.44;5068413;28;20032;-83
2022/06/06 09:14:25;;;;;;;14.43;4.72;;;;;;;15.84;70.70;101278.00;5068903;28;20024;-84
2022/06/06 09:17:12;;;;;;;10.95;3.42;;;;;;;15.73;68.35;101277.06;5071708;28;20044;-84
2022/06/06 09:20:05;;;;;;;12.13;3.70;;;;;;;15.70;70.50;101273.78;5070919;28;20036;-83
2022/06/06 09:23:01;;;;;;;7.65;3.10;;;;;;;15.72;69.51;101280.78;5071399;28;20339;-82
2022/06/06 09:25:37;;;;;;;11.55;3.17;;;;;;;15.71;69.39;101273.63;5069232;28;20036;-83
2022/06/06 09:28:11;;;;;;;8.30;2.90;;;;;;;15.72;67.99;101269.06;5073741;28;20028;-83
2022/06/06 09:30:45;;;;;;;4.72;2.58;;;;;;;15.81;70.56;101245.75;5059991;28;20032;-83
2022/06/06 09:33:48;;;;;;;8.80;2.85;;;;;;;15.91;69.84;101257.47;5073982;28;20411;-82
2022/06/06 09:36:25;;;;;;;4.28;2.20;;;;;;;16.08;69.56;101251.41;5058739;28;20032;-82
2022/06/06 09:39:04;;;;;;;3.63;2.33;;;;;;;16.26;68.44;101248.00;5072507;28;20020;-83
2022/06/06 09:41:34;;;;;;;4.55;2.22;;;;;;;16.46;68.87;101250.75;5065257;28;20033;-82
2022/06/06 09:44:30;;;;;;;8.40;2.75;;;;;;;16.64;68.65;101243.63;5058407;28;20078;-82
2022/06/06 09:47:05;;;;;;;4.80;2.25;;;;;;;16.82;67.16;101241.03;5061223;28;20028;-83
2022/06/06 09:49:49;;;;;;;6.13;2.28;;;;;;;16.94;66.21;101241.78;5066824;28;20024;-82
2022/06/06 09:52:41;;;;;;;8.57;2.58;;;;;;;17.01;64.28;101251.06;5072043;28;20059;-83
2022/06/06 09:59:01;;;;;;;4.32;2.13;;;;;;;16.96;64.14;101230.78;5064735;28;20040;-83
2022/06/06 10:01:50;;;;;;;8.43;2.92;;;;;;;17.03;64.26;101234.63;5073529;28;20463;-83
2022/06/06 10:04:52;;;;;;;5.78;2.50;;;;;;;17.14;64.61;101230.91;5070885;28;20326;-83
2022/06/06 10:07:42;;;;;;;4.57;2.00;;;;;;;17.10;62.02;101225.75;5070749;28;20033;-84
2022/06/06 10:10:41;;;;;;;7.07;2.50;;;;;;;17.08;63.08;101222.31;5072089;28;20024;-83
2022/06/06 10:13:15;;;;;;;7.80;2.58;;;;;;;17.08;60.53;101222.31;5072509;28;20464;-83
2022/06/06 10:16:04;;;;;;;6.45;2.47;;;;;;;17.06;62.06;101229.75;5071616;28;20073;-82
2022/06/06 10:18:37;;;;;;;5.57;2.33;;;;;;;17.01;62.89;101213.03;5058188;28;20048;-83
2022/06/06 10:21:05;;;;;;;7.82;2.83;;;;;;;16.97;63.96;101214.34;5069251;28;20082;-83
2022/06/06 10:23:48;;;;;;;6.22;2.78;;;;;;;16.95;62.56;101227.19;5072663;28;20468;-85
2022/06/06 10:26:32;;;;;;;7.90;3.33;;;;;;;16.93;64.31;101226.50;5071707;28;20407;-83
2022/06/06 10:29:03;;;;;;;5.55;2.20;;;;;;;17.00;63.13;101222.22;5071443;28;20043;-84
2022/06/06 10:31:37;;;;;;;8.27;2.15;;;;;;;17.10;64.35;101220.31;5070871;28;20024;-82
2022/06/06 10:34:22;;;;;;;7.28;2.55;;;;;;;17.15;62.76;101217.16;5066508;28;20044;-85
2022/06/06 10:37:21;;;;;;;7.18;2.75;;;;;;;17.18;63.42;101216.03;5068068;28;20020;-83
2022/06/06 10:40:22;;;;;;;7.80;2.40;;;;;;;17.21;63.18;101229.31;5068005;28;20036;-82
2022/06/06 10:43:06;;;;;;;9.93;2.75;;;;;;;17.32;62.81;101230.97;5060674;28;20040;-83
2022/06/06 10:45:52;;;;;;;7.50;2.55;;;;;;;17.43;63.76;101218.06;5071265;28;20036;-83
2022/06/06 10:48:41;;;;;;;5.55;2.47;;;;;;;17.51;64.61;101233.66;5071222;28;20107;-83
2022/06/06 10:51:43;;;;;;;9.30;2.90;;;;;;;17.53;64.24;101214.50;5071799;28;20029;-83
2022/06/06 10:54:08;;;;;;;4.32;2.38;;;;;;;17.63;66.30;101228.88;5070170;28;20490;-83
2022/06/06 10:56:52;;;;;;;6.35;2.75;;;;;;;17.67;63.56;101211.25;5068348;28;20024;-83
2022/06/06 10:59:45;;;;;;;11.40;2.60;;;;;;;17.79;65.66;101215.50;5055777;28;20036;-83
2022/06/06 11:02:37;;;;;;;10.50;2.97;;;;;;;17.88;63.73;101207.41;5056982;28;20024;-82
2022/06/06 11:05:14;;;;;;;6.82;2.42;;;;;;;17.90;62.98;101210.91;5057323;28;20115;-83
2022/06/06 11:08:12;;;;;;;6.50;2.40;;;;;;;17.89;62.36;101211.88;5065760;28;20070;-83
2022/06/06 11:10:52;;;;;;;11.98;3.20;;;;;;;17.89;60.73;101211.88;5051029;28;20111;-82
2022/06/06 11:13:35;;;;;;;;;;;;;;;17.93;63.60;101203.28;5065006;28;20060;-83
2022/06/06 11:16:16;;;;;;;7.53;2.67;;;;;;;17.93;61.27;101210.59;5071015;28;19912;-83
2022/06/06 11:18:44;;;;;;;5.45;2.08;;;;;;;18.02;59.38;101190.63;5063918;28;20105;-83
2022/06/06 11:21:12;;;;;;;7.28;2.80;;;;;;;18.19;60.71;101193.56;5070788;28;20025;-83
2022/06/06 11:24:27;;;;;;;6.80;2.35;;;;;;;18.32;60.44;101188.59;5070000;28;20571;-83
2022/06/06 11:27:07;;;;;;;6.95;2.45;;;;;;;18.31;58.64;101192.31;5048852;28;20127;-82
2022/06/06 11:29:44;;;;;;;6.35;2.42;;;;;;;18.28;56.27;101185.28;5069036;28;20042;-83
2022/06/06 11:32:22;;;;;;;6.20;2.30;;;;;;;18.30;59.00;101183.28;5070401;28;20036;-83
2022/06/06 11:34:59;;;;;;;8.18;2.45;;;;;;;18.34;58.18;101195.56;5065406;28;20036;-83
2022/06/06 11:37:49;;;;;;;9.05;2.53;;;;;;;18.40;58.38;101191.34;5068437;28;20341;-85
2022/06/06 11:40:40;;;;;;;6.95;2.17;;;;;;;18.45;57.63;101201.81;5064464;28;20189;-83
2022/06/06 11:43:24;;;;;;;4.95;2.47;;;;;;;18.39;56.45;101189.66;5063869;28;20032;-82
2022/06/06 11:46:04;;;;;;;6.55;2.45;;;;;;;18.38;58.86;101193.41;5056008;28;20040;-83
2022/06/06 11:49:10;;;;;;;7.60;2.67;;;;;;;18.30;57.84;101201.47;5071377;28;20020;-82
2022/06/06 11:52:15;;;;;;;7.18;2.22;;;;;;;18.18;56.29;101200.84;5064091;28;20433;-83
2022/06/06 11:55:14;;;;;;;5.28;2.10;;;;;;;18.08;57.99;101197.31;5053296;28;20025;-82
2022/06/06 11:57:58;;;;;;;;;;;;;;;18.05;59.30;101203.06;5069323;28;20036;-83
2022/06/06 12:00:39;;;;;;;5.15;2.28;;;;;;;17.91;58.45;101199.88;5067570;28;19912;-83
2022/06/06 12:03:16;;;;;;;4.07;2.03;;;;;;;17.82;58.67;101196.16;5066639;28;20089;-83
2022/06/06 12:05:52;;;;;;;4.93;2.38;;;;;;;17.75;58.75;101192.34;5058773;28;20055;-83
2022/06/06 12:08:39;;;;;;;7.53;2.50;;;;;;;17.64;57.58;101195.25;5060990;28;20373;-84
2022/06/06 12:11:23;;;;;;;4.55;1.98;;;;;;;17.58;58.30;101198.56;5056079;28;20111;-82
2022/06/06 12:14:26;;;;;;;5.93;2.30;;;;;;;17.56;59.18;101200.59;5061781;28;20481;-83
2022/06/06 12:17:21;;;;;;;6.80;2.60;;;;;;;17.55;58.65;101194.28;5070827;28;20128;-82
2022/06/06 12:20:19;;;;;;;4.95;2.00;;;;;;;17.60;57.96;101191.13;5068321;28;20082;-84
2022/06/06 12:23:17;;;;;;;5.32;2.67;;;;;;;17.67;58.25;101194.94;5058884;28;20028;-83
2022/06/06 12:26:14;;;;;;;5.65;2.33;;;;;;;17.70;58.81;101186.50;5072929;28;20474;-83
2022/06/06 12:28:57;;;;;;;5.43;2.38;;;;;;;17.69;58.02;101179.34;5057848;28;20473;-83
2022/06/06 12:31:47;;;;;;;4.85;2.17;;;;;;;17.61;58.83;101184.69;5066630;28;20047;-83